Data for 04/10/2010

Time Sea-Level Adjusted Pressure Absolute Pressure Temperature Relative Humidity Dew Point   
(mb) (inHg) (mb) (inHg) (C) (F) (%) (C) (F)
00:05 1018 30.06 847 25.01 -2 28.4 45 -12.6 9.4
00:10 1018 30.06 848 25.04 -2.1 28.3 45 -12.5 9.5
00:15 1018 30.06 848 25.04 -2.6 27.3 47 -12.5 9.5
00:20 1019 30.09 848 25.04 -2.7 27.1 45 -13.2 8.2
00:25 1019 30.09 848 25.04 -2.5 27.5 42 -13.7 7.4
00:30 1019 30.09 848 25.04 -2.3 27.9 42 -13.6 7.6
00:35 1019 30.09 848 25.04 -2 28.3 39 -14.2 6.4
00:40 1019 30.09 848 25.04 -1.8 28.8 38 -14.2 6.4
00:45 1019 30.09 848 25.04 -1.7 28.9 39 -13.8 7.2
00:50 1018 30.06 848 25.04 -1.7 28.9 40 -13.6 7.6
00:55 1018 30.06 848 25.04 -2.1 28.3 42 -13.2 8.2
01:00 1019 30.09 848 25.04 -2.3 27.8 45 -12.8 8.9
01:05 1019 30.09 848 25.04 -2.5 27.4 45 -13 8.7
01:10 1019 30.09 848 25.04 -2.6 27.4 45 -13 8.6
01:15 1019 30.09 848 25.04 -2.6 27.3 47 -12.6 9.3
01:20 1019 30.09 848 25.04 -2.9 26.7 48 -12.4 9.8
01:25 1019 30.09 848 25.04 -3.1 26.5 46 -13.1 8.5
01:30 1019 30.09 848 25.04 -3.1 26.4 45 -13.5 7.7
01:35 1019 30.09 848 25.04 -3 26.6 44 -13.7 7.3
01:40 1019 30.09 848 25.04 -3 26.6 44 -13.7 7.4
01:45 1019 30.09 848 25.04 -3.1 26.4 46 -13.2 8.2
01:50 1019 30.09 848 25.04 -3.5 25.7 49 -12.8 8.9
01:55 1019 30.09 848 25.04 -3.8 25.2 50 -12.8 9
02:00 1019 30.09 848 25.04 -3.9 25 49 -13 8.6
02:05 1019 30.09 848 25.04 -3.9 25 50 -13 8.6
02:10 1019 30.09 848 25.04 -3.9 25 49 -13 8.6
02:15 1019 30.09 848 25.04 -3.9 25.1 49 -13.1 8.4
02:20 1019 30.09 848 25.04 -4 24.9 50 -12.9 8.7
02:25 1019 30.09 848 25.04 -4.1 24.7 50 -13 8.6
02:30 1019 30.09 848 25.04 -4.2 24.5 50 -13.1 8.4
02:35 1019 30.09 848 25.04 -4.2 24.5 49 -13.3 8
02:40 1019 30.09 848 25.04 -4.1 24.6 49 -13.3 8.1
02:45 1019 30.09 848 25.04 -4.2 24.4 50 -13.1 8.4
02:50 1019 30.09 848 25.04 -4.3 24.3 49 -13.4 8
02:55 1019 30.09 848 25.04 -4.3 24.2 50 -13.2 8.3
03:00 1019 30.09 848 25.04 -4.4 24.1 51 -13.1 8.5
03:05 1019 30.09 848 25.04 -4.5 23.9 51 -13.2 8.2
03:10 1019 30.09 848 25.04 -4.5 24 50 -13.4 7.9
03:15 1019 30.09 848 25.04 -4.4 24 50 -13.3 8
03:20 1019 30.09 848 25.04 -4.5 23.9 51 -13.3 8.1
03:25 1019 30.09 848 25.04 -4.5 23.9 51 -13.2 8.2
03:30 1019 30.09 848 25.04 -4.6 23.7 51 -13.3 8.1
03:35 1019 30.09 848 25.04 -4.6 23.8 52 -13.1 8.4
03:40 1019 30.09 848 25.04 -4.6 23.7 51 -13.2 8.2
03:45 1019 30.09 848 25.04 -4.7 23.5 53 -13 8.5
03:50 1019 30.09 848 25.04 -4.9 23.3 53 -13 8.7
03:55 1019 30.09 848 25.04 -4.8 23.3 53 -13.1 8.4
04:00 1019 30.09 848 25.04 -4.9 23.2 53 -13 8.6
04:05 1019 30.09 848 25.04 -5 23 54 -12.9 8.7
04:10 1019 30.09 848 25.04 -5 23 54 -12.9 8.8
04:15 1019 30.09 848 25.04 -5.1 22.8 55 -12.8 8.9
04:20 1019 30.09 848 25.04 -5.2 22.6 56 -12.8 9
04:25 1019 30.09 848 25.04 -5.3 22.4 53 -13.4 7.9
04:30 1019 30.09 848 25.04 -5.4 22.4 53 -13.4 7.9
04:35 1019 30.09 848 25.04 -5.2 22.7 51 -13.9 6.9
04:40 1019 30.09 848 25.04 -4.9 23.1 50 -13.9 7.1
04:45 1019 30.09 848 25.04 -5.3 22.5 51 -13.9 7
04:50 1019 30.09 848 25.04 -5.4 22.2 52 -13.8 7.1
04:55 1019 30.09 848 25.04 -5.7 21.8 53 -13.9 7
05:00 1019 30.09 848 25.04 -5.5 22 51 -14.2 6.5
05:05 1019 30.09 848 25.04 -5.4 22.2 51 -14.1 6.6
05:10 1019 30.09 848 25.04 -5.2 22.6 52 -13.6 7.5
05:15 1019 30.09 848 25.04 -5.4 22.2 53 -13.5 7.6
05:20 1019 30.09 848 25.04 -5.1 22.7 51 -13.8 7.1
05:25 1019 30.09 848 25.04 -5.1 22.8 52 -13.6 7.5
05:30 1019 30.09 848 25.04 -5.2 22.7 53 -13.4 7.9
05:35 1019 30.09 848 25.04 -5.7 21.8 55 -13.3 8.1
05:40 1019 30.09 848 25.04 -5.9 21.4 55 -13.6 7.6
05:45 1019 30.09 848 25.04 -5.7 21.7 55 -13.5 7.8
05:50 1019 30.09 848 25.04 -5.8 21.6 55 -13.5 7.7
05:55 1019 30.09 848 25.04 -5.8 21.6 54 -13.6 7.5
06:00 1019 30.09 848 25.04 -5.5 22.1 53 -13.5 7.7
06:05 1019 30.09 848 25.04 -5.3 22.5 53 -13.3 8
06:10 1019 30.09 848 25.04 -5.4 22.2 55 -13.2 8.3
06:15 1019 30.09 848 25.04 -5.6 21.8 55 -13.4 7.8
06:20 1019 30.09 848 25.04 -5.6 21.9 55 -13.4 8
06:25 1019 30.09 848 25.04 -5.5 22 55 -13.3 8.1
06:30 1019 30.09 848 25.04 -5.7 21.7 56 -13.1 8.4
06:35 1019 30.09 848 25.04 -5.9 21.3 55 -13.6 7.6
06:40 1019 30.09 848 25.04 -5.4 22.3 53 -13.6 7.6
06:45 1019 30.09 848 25.04 -5.1 22.8 52 -13.4 7.9
06:50 1019 30.09 848 25.04 -5.2 22.6 53 -13.3 8
06:55 1019 30.09 848 25.04 -5.2 22.6 54 -13.1 8.4
07:00 1019 30.09 848 25.04 -5.4 22.4 55 -13.1 8.4
07:05 1019 30.09 848 25.04 -5.3 22.4 54 -13.2 8.2
07:10 1019 30.09 848 25.04 -5.1 22.8 54 -13.2 8.3
07:15 1019 30.09 848 25.04 -5.2 22.7 54 -13.2 8.3
07:20 1019 30.09 848 25.04 -5.1 22.8 54 -13 8.6
07:25 1019 30.09 848 25.04 -5.1 22.8 55 -12.8 8.9
07:30 1019 30.09 849 25.07 -4.9 23.1 54 -13 8.6
07:35 1019 30.09 849 25.07 -4.7 23.5 54 -12.7 9.1
07:40 1019 30.09 849 25.07 -4.6 23.8 53 -12.7 9.1
07:45 1019 30.09 849 25.07 -4.3 24.3 53 -12.4 9.6
07:50 1019 30.09 849 25.07 -4.2 24.4 52 -12.6 9.2
07:55 1019 30.09 849 25.07 -4 24.8 51 -12.8 9
08:00 1019 30.09 849 25.07 -3.9 25 52 -12.4 9.6
08:05 1019 30.09 849 25.07 -3.9 24.9 52 -12.4 9.6
08:10 1020 30.12 849 25.07 -3.4 25.9 51 -12.3 9.9
08:15 1020 30.12 849 25.07 -3.1 26.5 50 -12.1 10.2
08:20 1019 30.09 849 25.07 -2.7 27.1 49 -12 10.5
08:25 1020 30.12 849 25.07 -2.8 27 49 -12.1 10.2
08:30 1020 30.12 849 25.07 -2.4 27.7 45 -12.7 9.1
08:35 1020 30.12 849 25.07 -2.1 28.2 45 -12.5 9.5
08:40 1020 30.12 849 25.07 -1.4 29.5 43 -12.5 9.5
08:45 1020 30.12 849 25.07 -1 30.2 43 -12.1 10.1
08:50 1020 30.12 849 25.07 -1.1 30.1 43 -12.1 10.3
08:55 1020 30.12 849 25.07 -0.3 31.4 41 -12.1 10.2
09:00 1020 30.12 849 25.07 0.1 32.3 40 -12 10.4
09:05 1020 30.12 849 25.07 1 33.8 38 -11.6 11
09:10 1020 30.12 849 25.07 1.2 34.1 38 -11.7 11
09:15 1020 30.12 849 25.07 0.8 33.5 39 -11.7 10.9
09:20 1020 30.12 849 25.07 1 33.8 37 -12.2 10.1
09:25 1020 30.12 849 25.07 1.3 34.3 35 -12.5 9.5
09:30 1020 30.12 849 25.07 1.6 34.8 34 -12.6 9.3
09:35 1020 30.12 849 25.07 1.4 34.5 35 -12.3 9.8
09:40 1020 30.12 849 25.07 1.6 34.9 37 -11.7 10.9
09:45 1020 30.12 849 25.07 2.2 35.9 33 -12.7 9.2
09:50 1020 30.12 849 25.07 1.7 35 36 -12 10.4
09:55 1020 30.12 849 25.07 1.3 34.4 37 -12 10.4
10:00 1020 30.12 849 25.07 1.8 35.2 33 -12.7 9.1
10:05 1020 30.12 849 25.07 3 37.4 32 -12.2 10
10:10 1019 30.09 849 25.07 3.3 37.9 32 -11.9 10.6
10:15 1019 30.09 849 25.07 3.4 38.1 32 -11.9 10.6
10:20 1019 30.09 849 25.07 3.5 38.3 32 -11.5 11.3
10:25 1019 30.09 849 25.07 3.7 38.6 32 -11.5 11.2
10:30 1019 30.09 849 25.07 3.9 39 32 -11.4 11.6
10:35 1019 30.09 848 25.04 3.5 38.3 33 -11.4 11.4
10:40 1019 30.09 848 25.04 4 39.2 32 -11.3 11.7
10:45 1019 30.09 848 25.04 4.6 40.2 30 -11.5 11.3
10:50 1019 30.09 848 25.04 3.7 38.6 32 -11.6 11.2
10:55 1019 30.09 848 25.04 3.5 38.3 31 -12 10.5
11:00 1019 30.09 848 25.04 3.7 38.6 32 -11.6 11.1
11:05 1019 30.09 848 25.04 3.2 37.7 33 -11.7 11
11:10 1019 30.09 848 25.04 4.6 40.3 29 -12.1 10.2
11:15 1019 30.09 848 25.04 4.8 40.7 31 -11 12.3
11:20 1019 30.09 848 25.04 3.9 39 32 -11.2 11.9
11:25 1019 30.09 848 25.04 4.1 39.3 31 -11.6 11.2
11:30 1019 30.09 848 25.04 5.5 42 29 -11.1 12
11:35 1019 30.09 848 25.04 6.4 43.4 29 -10.6 13
11:40 1019 30.09 848 25.04 6.6 43.9 29 -10.3 13.5
11:45 1019 30.09 848 25.04 6 42.9 27 -11.7 10.9
11:50 1019 30.09 848 25.04 5.4 41.8 30 -10.8 12.6
11:55 1019 30.09 848 25.04 5.5 41.9 29 -11.3 11.7
12:00 1019 30.09 848 25.04 4.9 40.8 29 -11.6 11.1
12:05 1018 30.06 848 25.04 5.9 42.6 28 -11.4 11.5
12:10 1018 30.06 848 25.04 6.1 42.9 29 -10.8 12.5
12:15 1018 30.06 848 25.04 6.6 44 27 -10.9 12.4
12:20 1018 30.06 848 25.04 6.1 43.1 28 -11.2 11.8
12:25 1018 30.06 848 25.04 6.6 43.9 26 -11.6 11.1
12:30 1018 30.06 847 25.01 7.6 45.7 25 -11.3 11.7
12:35 1018 30.06 847 25.01 7.8 46.1 25 -11.2 11.8
12:40 1018 30.06 847 25.01 7.4 45.4 25 -11.6 11.2
12:45 1018 30.06 847 25.01 7.4 45.4 24 -12 10.5
12:50 1018 30.06 847 25.01 8.5 47.3 24 -10.9 12.4
12:55 1018 30.06 847 25.01 8.9 48.1 24 -10.7 12.7
13:00 1018 30.06 847 25.01 7.5 45.6 25 -11.4 11.5
13:05 1018 30.06 847 25.01 7.5 45.5 24 -11.6 11
13:10 1018 30.06 847 25.01 7.7 45.8 24 -11.7 11
13:15 1018 30.06 847 25.01 8.2 46.7 24 -11.4 11.5
13:20 1018 30.06 847 25.01 8.8 47.9 22 -12 10.4
13:25 1018 30.06 847 25.01 8.7 47.6 22 -11.8 10.7
13:30 1017 30.03 847 25.01 8.8 47.8 22 -11.7 10.9
13:35 1017 30.03 846 24.98 8.5 47.2 22 -12.3 9.9
13:40 1017 30.03 846 24.98 8.1 46.5 23 -12 10.3
13:45 1017 30.03 846 24.98 9.5 49.2 19 -12.9 8.8
13:50 1017 30.03 846 24.98 10.1 50.2 19 -12.4 9.7
13:55 1017 30.03 846 24.98 10.2 50.3 19 -12.5 9.6
14:00 1017 30.03 846 24.98 9.1 48.4 20 -12.8 8.9
14:05 1017 30.03 846 24.98 8.4 47.1 20 -13.6 7.5
14:10 1017 30.03 846 24.98 9.3 48.7 19 -13.4 7.9
14:15 1017 30.03 846 24.98 9.8 49.6 18 -13.3 8.1
14:20 1017 30.03 846 24.98 9.3 48.8 20 -12.5 9.5
14:25 1017 30.03 846 24.98 9.9 49.8 17 -14.1 6.7
14:30 1017 30.03 846 24.98 10.6 51.1 17 -13.3 8
14:35 1017 30.03 846 24.98 10.7 51.2 17 -13.3 8.1
14:40 1017 30.03 846 24.98 10.3 50.6 18 -13 8.6
14:45 1017 30.03 846 24.98 9.7 49.4 18 -13.7 7.3
14:50 1017 30.03 846 24.98 9.9 49.8 18 -13.2 8.2
14:55 1017 30.03 846 24.98 10.3 50.5 18 -13 8.6
15:00 1017 30.03 846 24.98 11.6 52.8 15 -13.9 7
15:05 1017 30.03 846 24.98 11.5 52.6 17 -12.5 9.5
15:10 1016 30 846 24.98 10.7 51.3 18 -12.8 8.9
15:15 1016 30 846 24.98 11.5 52.7 16 -13.1 8.4
15:20 1016 30 846 24.98 10.5 50.9 18 -12.6 9.4
15:25 1016 30 846 24.98 10.8 51.4 15 -14.5 5.9
15:30 1016 30 846 24.98 11.1 52 18 -12.6 9.2
15:35 1016 30 845 24.95 11.6 52.9 15 -14.4 6.2
15:40 1016 30 845 24.95 11.5 52.7 16 -13.6 7.5
15:45 1016 30 845 24.95 12.4 54.2 14 -14.1 6.6
15:50 1016 30 845 24.95 12.1 53.7 15 -13.6 7.6
15:55 1016 30 845 24.95 11.9 53.5 15 -13.8 7.2
16:00 1016 30 845 24.95 11.1 51.9 17 -13.3 8.1
16:05 1016 30 845 24.95 11.2 52.1 15 -14.3 6.2
16:10 1016 30 845 24.95 11.9 53.4 15 -13.6 7.5
16:15 1016 30 845 24.95 12.5 54.6 15 -13.8 7.1
16:20 1016 30 845 24.95 12 53.5 17 -12.1 10.2
16:25 1016 30 845 24.95 11.9 53.3 16 -13.5 7.7
16:30 1016 30 845 24.95 12.2 53.9 15 -13.5 7.7
16:35 1016 30 845 24.95 11.2 52.2 17 -12.9 8.8
16:40 1016 30 845 24.95 11.7 53.1 16 -13.4 8
16:45 1016 30 845 24.95 11.2 52.1 18 -12.3 9.8
16:50 1016 30 845 24.95 11.5 52.7 17 -12.8 8.9
16:55 1016 30 845 24.95 11.7 53 17 -12.9 8.7
17:00 1016 30 845 24.95 11.6 52.9 17 -12.7 9.1
17:05 1015 29.97 845 24.95 10.8 51.5 18 -12.7 9.1
17:10 1015 29.97 845 24.95 11.1 52.1 17 -13.2 8.3
17:15 1015 29.97 845 24.95 12.1 53.7 16 -12.7 9.1
17:20 1015 29.97 845 24.95 10.5 50.8 18 -12.8 9
17:25 1015 29.97 845 24.95 10.2 50.3 18 -13.3 8.1
17:30 1015 29.97 845 24.95 10.3 50.5 19 -12.4 9.7
17:35 1015 29.97 845 24.95 11.3 52.3 17 -12.9 8.8
17:40 1015 29.97 845 24.95 11.1 52 17 -13.1 8.4
17:45 1015 29.97 845 24.95 10.3 50.5 19 -12.7 9.2
17:50 1015 29.97 844 24.92 10.6 51.1 17 -13.8 7.2
17:55 1015 29.97 844 24.92 10.4 50.8 18 -12.8 9
18:00 1015 29.97 844 24.92 10.3 50.5 18 -12.8 9
18:05 1015 29.97 844 24.92 10.5 50.8 18 -12.9 8.8
18:10 1015 29.97 844 24.92 10.6 51 18 -13.2 8.3
18:15 1015 29.97 844 24.92 10.2 50.4 17 -13.5 7.7
18:20 1015 29.97 844 24.92 9.8 49.6 19 -13 8.6
18:25 1015 29.97 844 24.92 9.8 49.7 18 -13.1 8.4
18:30 1015 29.97 845 24.95 9.9 49.8 19 -12.9 8.8
18:35 1015 29.97 845 24.95 9.9 49.8 18 -13.1 8.3
18:40 1015 29.97 845 24.95 9.7 49.5 19 -12.6 9.4
18:45 1015 29.97 845 24.95 9.8 49.7 19 -12.7 9.1
18:50 1015 29.97 845 24.95 9.8 49.7 20 -12 10.4
18:55 1015 29.97 845 24.95 9.6 49.3 21 -11.5 11.4
19:00 1015 29.97 845 24.95 9.6 49.2 21 -11.6 11.2
19:05 1015 29.97 845 24.95 9.4 48.9 22 -11.5 11.3
19:10 1015 29.97 845 24.95 9.3 48.7 22 -11.1 12
19:15 1015 29.97 845 24.95 9.1 48.3 23 -10.9 12.4
19:20 1015 29.97 845 24.95 8.9 47.9 24 -10.5 13.1
19:25 1015 29.97 845 24.95 8.5 47.3 26 -9.9 14.1
19:30 1015 29.97 844 24.92 8.2 46.8 26 -10 13.9
19:35 1015 29.97 844 24.92 8.1 46.6 26 -10.1 13.8
19:40 1015 29.97 844 24.92 8 46.4 27 -9.8 14.3
19:45 1015 29.97 844 24.92 7.9 46.3 26 -10.5 13.2
19:50 1015 29.97 844 24.92 7.9 46.3 26 -10.5 13.1
19:55 1015 29.97 844 24.92 7.9 46.2 26 -10.5 13.1
20:00 1015 29.97 844 24.92 7.8 46 26 -10.7 12.7
20:05 1015 29.97 844 24.92 7.8 46 27 -10.3 13.5
20:10 1015 29.97 844 24.92 7.6 45.6 27 -10.1 13.9
20:15 1015 29.97 844 24.92 7.5 45.4 27 -10.4 13.3
20:20 1015 29.97 845 24.95 7.4 45.3 27 -10.4 13.3
20:25 1015 29.97 845 24.95 7.3 45.2 28 -10.1 13.7
20:30 1015 29.97 845 24.95 7.2 44.9 28 -10.2 13.7
20:35 1016 30 845 24.95 7.1 44.7 28 -10.5 13.2
20:40 1016 30 845 24.95 7.1 44.7 27 -10.9 12.5
20:45 1016 30 845 24.95 7.1 44.9 26 -10.9 12.4
20:50 1016 30 845 24.95 7.1 44.8 27 -10.6 12.9
20:55 1016 30 845 24.95 7.1 44.7 26 -11 12.2
21:00 1016 30 845 24.95 7.1 44.7 27 -10.5 13
21:05 1016 30 845 24.95 7 44.7 27 -10.6 12.9
21:10 1016 30 845 24.95 7 44.5 27 -10.7 12.8
21:15 1016 30 845 24.95 7 44.6 27 -10.6 13
21:20 1016 30 845 24.95 6.9 44.4 28 -10.4 13.3
21:25 1016 30 845 24.95 6.9 44.4 27 -10.7 12.8
21:30 1016 30 845 24.95 6.9 44.5 27 -10.9 12.5
21:35 1016 30 845 24.95 6.9 44.4 28 -10.3 13.5
21:40 1016 30 845 24.95 6.8 44.2 29 -10.2 13.6
21:45 1016 30 845 24.95 6.7 44.1 28 -10.5 13
21:50 1016 30 845 24.95 6.8 44.2 28 -10.7 12.8
21:55 1016 30 845 24.95 6.8 44.2 28 -10.4 13.2
22:00 1016 30 845 24.95 6.6 43.9 29 -10.3 13.4
22:05 1016 30 845 24.95 6.4 43.5 29 -10.5 13
22:10 1016 30 845 24.95 6.4 43.6 29 -10.4 13.2
22:15 1016 30 845 24.95 6.4 43.4 30 -10.2 13.6
22:20 1016 30 845 24.95 6.2 43.2 30 -10.1 13.8
22:25 1016 30 845 24.95 6.1 42.9 30 -10.2 13.7
22:30 1016 30 845 24.95 6.1 42.9 31 -10 14
22:35 1016 30 845 24.95 6 42.8 31 -10 14
22:40 1016 30 845 24.95 5.8 42.5 31 -9.9 14.2
22:45 1016 30 845 24.95 5.7 42.2 31 -10.1 13.8
22:50 1016 30 845 24.95 5.7 42.3 32 -9.9 14.2
22:55 1016 30 845 24.95 5.5 41.9 33 -9.7 14.5
23:00 1016 30 845 24.95 5.4 41.7 33 -9.6 14.7
23:05 1016 30 845 24.95 5.2 41.4 34 -9.5 14.8
23:10 1016 30 845 24.95 5 41.1 34 -9.5 14.9
23:15 1016 30 845 24.95 4.9 40.8 35 -9.4 15.1
23:20 1016 30 845 24.95 4.8 40.6 35 -9.3 15.3
23:25 1016 30 845 24.95 4.7 40.5 35 -9.4 15.1
23:30 1016 30 845 24.95 4.7 40.5 35 -9.6 14.6
23:35 1016 30 845 24.95 4.7 40.4 35 -9.5 14.9
23:40 1016 30 845 24.95 4.6 40.3 35 -9.5 15
23:45 1016 30 845 24.95 4.5 40.1 35 -9.6 14.7
23:50 1016 30 846 24.98 4.5 40 35 -9.8 14.3
23:55 1016 30 846 24.98 4.5 40.1 34 -10 13.9
24:00 1016 30 846 24.98 4.6 40.2 34 -10.1 13.8